KR-0412 weather

Busan Dadae Jugong 2 Apartment Complex Heliports
Busan, Busan Gwang'yeogsi, South Korea

Public forecast

Using degrees Celsius for public forecast. Weather courtesy of forecast.io.

METAR (pilot weather report)

Closest report is Gimhae International Airport, 7.2 nm (13.4 km) NNW. Retrieved 2019/07/22 23:00 UTC (47 minutes ago):

RKPK 222300Z 18006KT 9000 FEW030 BKN050 BKN200 27/24 Q1007

TAF (pilot weather forecast)

Closest forecast is Gimhae International Airport, 7.2 nm (13.4 km) NNW. Retrieved 2019/07/22 18:00 UTC (6 hours ago):

TAF RKPK 221700Z 2218/2324 33006KT 4800 BR SCT030 BKN200 TN22/2220Z TX31/2306Z BECMG 2219/2220 3200 BECMG 2223/2224 4800 BECMG 2301/2302 9000 NSW